sensor_id;sensor_type;location;lat;lon;timestamp;P1;durP1;ratioP1;P2;durP2;ratioP2
10985;SDS011;5546;48.714;8.738;2023-02-15T00:01:34;28.40;;;16.57;;
10985;SDS011;5546;48.714;8.738;2023-02-15T00:04:00;26.33;;;16.37;;
10985;SDS011;5546;48.714;8.738;2023-02-15T00:06:26;25.97;;;16.97;;
10985;SDS011;5546;48.714;8.738;2023-02-15T00:08:51;31.40;;;17.70;;
10985;SDS011;5546;48.714;8.738;2023-02-15T00:11:18;30.30;;;16.97;;
10985;SDS011;5546;48.714;8.738;2023-02-15T00:14:05;25.20;;;15.93;;
10985;SDS011;5546;48.714;8.738;2023-02-15T00:16:35;28.93;;;17.50;;
10985;SDS011;5546;48.714;8.738;2023-02-15T00:19:01;32.40;;;17.90;;
10985;SDS011;5546;48.714;8.738;2023-02-15T00:21:30;28.50;;;17.37;;
10985;SDS011;5546;48.714;8.738;2023-02-15T00:23:58;29.57;;;17.00;;
10985;SDS011;5546;48.714;8.738;2023-02-15T00:26:24;30.27;;;17.77;;
10985;SDS011;5546;48.714;8.738;2023-02-15T00:28:51;28.90;;;17.30;;
10985;SDS011;5546;48.714;8.738;2023-02-15T00:31:17;34.50;;;18.07;;
10985;SDS011;5546;48.714;8.738;2023-02-15T00:33:43;26.37;;;16.63;;
10985;SDS011;5546;48.714;8.738;2023-02-15T00:36:09;29.27;;;17.07;;
10985;SDS011;5546;48.714;8.738;2023-02-15T00:38:35;31.30;;;17.83;;
10985;SDS011;5546;48.714;8.738;2023-02-15T00:41:02;27.33;;;17.77;;
10985;SDS011;5546;48.714;8.738;2023-02-15T00:43:30;29.63;;;17.37;;
10985;SDS011;5546;48.714;8.738;2023-02-15T00:45:57;31.27;;;17.03;;
10985;SDS011;5546;48.714;8.738;2023-02-15T00:48:24;30.13;;;16.77;;
10985;SDS011;5546;48.714;8.738;2023-02-15T00:50:51;26.40;;;16.57;;
10985;SDS011;5546;48.714;8.738;2023-02-15T00:53:18;30.33;;;17.27;;
10985;SDS011;5546;48.714;8.738;2023-02-15T00:55:43;30.10;;;17.80;;
10985;SDS011;5546;48.714;8.738;2023-02-15T00:58:09;26.13;;;15.40;;
10985;SDS011;5546;48.714;8.738;2023-02-15T01:00:36;31.23;;;18.07;;
10985;SDS011;5546;48.714;8.738;2023-02-15T01:03:02;29.93;;;16.17;;
10985;SDS011;5546;48.714;8.738;2023-02-15T01:05:28;28.37;;;16.90;;
10985;SDS011;5546;48.714;8.738;2023-02-15T01:07:54;24.63;;;16.57;;
10985;SDS011;5546;48.714;8.738;2023-02-15T01:10:23;26.13;;;16.27;;
10985;SDS011;5546;48.714;8.738;2023-02-15T01:12:50;23.90;;;15.80;;
10985;SDS011;5546;48.714;8.738;2023-02-15T01:15:16;24.83;;;15.60;;
10985;SDS011;5546;48.714;8.738;2023-02-15T01:17:42;24.67;;;15.73;;
10985;SDS011;5546;48.714;8.738;2023-02-15T01:20:10;27.23;;;16.13;;
10985;SDS011;5546;48.714;8.738;2023-02-15T01:22:36;25.63;;;15.03;;
10985;SDS011;5546;48.714;8.738;2023-02-15T01:25:02;28.50;;;15.20;;
10985;SDS011;5546;48.714;8.738;2023-02-15T01:27:28;26.63;;;16.00;;
10985;SDS011;5546;48.714;8.738;2023-02-15T01:29:55;23.73;;;15.53;;
10985;SDS011;5546;48.714;8.738;2023-02-15T01:32:21;24.33;;;15.00;;
10985;SDS011;5546;48.714;8.738;2023-02-15T01:34:47;25.57;;;15.33;;
10985;SDS011;5546;48.714;8.738;2023-02-15T01:37:12;28.53;;;15.90;;
10985;SDS011;5546;48.714;8.738;2023-02-15T01:39:38;26.77;;;15.60;;
10985;SDS011;5546;48.714;8.738;2023-02-15T01:42:03;27.33;;;16.10;;
10985;SDS011;5546;48.714;8.738;2023-02-15T01:44:49;27.87;;;17.37;;
10985;SDS011;5546;48.714;8.738;2023-02-15T01:52:30;24.30;;;15.77;;
10985;SDS011;5546;48.714;8.738;2023-02-15T01:54:56;29.93;;;16.70;;
10985;SDS011;5546;48.714;8.738;2023-02-15T01:57:23;34.10;;;17.70;;
10985;SDS011;5546;48.714;8.738;2023-02-15T01:59:54;25.30;;;17.20;;
10985;SDS011;5546;48.714;8.738;2023-02-15T02:02:22;30.60;;;16.57;;
10985;SDS011;5546;48.714;8.738;2023-02-15T02:04:52;26.97;;;16.50;;
10985;SDS011;5546;48.714;8.738;2023-02-15T02:07:21;24.23;;;15.27;;
10985;SDS011;5546;48.714;8.738;2023-02-15T02:09:49;24.10;;;15.30;;
10985;SDS011;5546;48.714;8.738;2023-02-15T02:12:15;27.93;;;15.20;;
10985;SDS011;5546;48.714;8.738;2023-02-15T02:14:42;24.57;;;16.20;;
10985;SDS011;5546;48.714;8.738;2023-02-15T02:25:19;28.23;;;15.00;;
10985;SDS011;5546;48.714;8.738;2023-02-15T02:46:51;28.13;;;15.70;;
10985;SDS011;5546;48.714;8.738;2023-02-15T02:49:28;22.80;;;14.67;;
10985;SDS011;5546;48.714;8.738;2023-02-15T02:52:02;29.53;;;16.27;;
10985;SDS011;5546;48.714;8.738;2023-02-15T02:54:47;23.57;;;14.77;;
10985;SDS011;5546;48.714;8.738;2023-02-15T02:57:12;24.90;;;15.00;;
10985;SDS011;5546;48.714;8.738;2023-02-15T02:59:39;27.00;;;15.30;;
10985;SDS011;5546;48.714;8.738;2023-02-15T03:02:13;23.10;;;15.07;;
10985;SDS011;5546;48.714;8.738;2023-02-15T03:04:46;24.63;;;14.93;;
10985;SDS011;5546;48.714;8.738;2023-02-15T03:07:23;23.93;;;14.90;;
10985;SDS011;5546;48.714;8.738;2023-02-15T03:09:53;23.63;;;14.47;;
10985;SDS011;5546;48.714;8.738;2023-02-15T03:12:27;21.30;;;13.03;;
10985;SDS011;5546;48.714;8.738;2023-02-15T03:15:10;23.27;;;14.40;;
10985;SDS011;5546;48.714;8.738;2023-02-15T03:17:42;24.77;;;15.30;;
10985;SDS011;5546;48.714;8.738;2023-02-15T03:20:14;24.23;;;13.53;;
10985;SDS011;5546;48.714;8.738;2023-02-15T03:22:53;26.00;;;14.33;;
10985;SDS011;5546;48.714;8.738;2023-02-15T03:25:31;20.43;;;13.27;;
10985;SDS011;5546;48.714;8.738;2023-02-15T03:28:09;24.77;;;14.07;;
10985;SDS011;5546;48.714;8.738;2023-02-15T03:30:40;21.67;;;13.47;;
10985;SDS011;5546;48.714;8.738;2023-02-15T03:33:08;21.73;;;12.90;;
10985;SDS011;5546;48.714;8.738;2023-02-15T03:35:49;21.67;;;12.80;;
10985;SDS011;5546;48.714;8.738;2023-02-15T03:38:33;23.67;;;14.10;;
10985;SDS011;5546;48.714;8.738;2023-02-15T03:41:09;24.70;;;13.57;;
10985;SDS011;5546;48.714;8.738;2023-02-15T03:46:23;20.90;;;14.00;;
10985;SDS011;5546;48.714;8.738;2023-02-15T03:49:07;22.40;;;13.87;;
10985;SDS011;5546;48.714;8.738;2023-02-15T03:51:42;22.03;;;12.73;;
10985;SDS011;5546;48.714;8.738;2023-02-15T03:54:15;20.83;;;13.17;;
10985;SDS011;5546;48.714;8.738;2023-02-15T03:57:12;25.50;;;13.50;;
10985;SDS011;5546;48.714;8.738;2023-02-15T03:59:59;19.70;;;13.20;;
10985;SDS011;5546;48.714;8.738;2023-02-15T04:02:59;21.17;;;12.07;;
10985;SDS011;5546;48.714;8.738;2023-02-15T04:05:34;21.17;;;12.97;;
10985;SDS011;5546;48.714;8.738;2023-02-15T04:08:00;23.87;;;12.70;;
10985;SDS011;5546;48.714;8.738;2023-02-15T04:10:26;23.10;;;13.30;;
10985;SDS011;5546;48.714;8.738;2023-02-15T04:13:10;19.87;;;12.33;;
10985;SDS011;5546;48.714;8.738;2023-02-15T04:15:36;18.80;;;12.40;;
10985;SDS011;5546;48.714;8.738;2023-02-15T04:18:20;19.07;;;12.60;;
10985;SDS011;5546;48.714;8.738;2023-02-15T04:20:46;20.57;;;12.87;;
10985;SDS011;5546;48.714;8.738;2023-02-15T04:23:30;19.73;;;12.27;;
10985;SDS011;5546;48.714;8.738;2023-02-15T04:26:14;17.87;;;11.23;;
10985;SDS011;5546;48.714;8.738;2023-02-15T04:28:40;20.23;;;11.33;;
10985;SDS011;5546;48.714;8.738;2023-02-15T04:31:05;17.33;;;11.33;;
10985;SDS011;5546;48.714;8.738;2023-02-15T04:33:31;25.73;;;14.23;;
10985;SDS011;5546;48.714;8.738;2023-02-15T04:35:56;30.13;;;15.30;;
10985;SDS011;5546;48.714;8.738;2023-02-15T04:38:22;23.17;;;13.40;;
10985;SDS011;5546;48.714;8.738;2023-02-15T04:40:51;21.07;;;13.40;;
10985;SDS011;5546;48.714;8.738;2023-02-15T04:43:20;22.27;;;12.87;;
10985;SDS011;5546;48.714;8.738;2023-02-15T04:45:49;20.13;;;12.17;;
10985;SDS011;5546;48.714;8.738;2023-02-15T04:48:15;17.73;;;11.50;;
10985;SDS011;5546;48.714;8.738;2023-02-15T04:50:41;17.37;;;10.73;;
10985;SDS011;5546;48.714;8.738;2023-02-15T04:53:07;18.43;;;11.33;;
10985;SDS011;5546;48.714;8.738;2023-02-15T04:55:33;18.60;;;11.10;;
10985;SDS011;5546;48.714;8.738;2023-02-15T04:57:58;18.27;;;11.33;;
10985;SDS011;5546;48.714;8.738;2023-02-15T05:00:23;16.37;;;11.07;;
10985;SDS011;5546;48.714;8.738;2023-02-15T05:02:49;17.20;;;11.03;;
10985;SDS011;5546;48.714;8.738;2023-02-15T05:05:15;17.33;;;10.87;;
10985;SDS011;5546;48.714;8.738;2023-02-15T05:07:42;18.20;;;10.40;;
10985;SDS011;5546;48.714;8.738;2023-02-15T05:10:07;20.23;;;11.97;;
10985;SDS011;5546;48.714;8.738;2023-02-15T05:12:33;17.10;;;11.47;;
10985;SDS011;5546;48.714;8.738;2023-02-15T05:14:58;18.90;;;11.17;;
10985;SDS011;5546;48.714;8.738;2023-02-15T05:17:24;18.47;;;10.97;;
10985;SDS011;5546;48.714;8.738;2023-02-15T05:19:49;16.30;;;10.27;;
10985;SDS011;5546;48.714;8.738;2023-02-15T05:22:15;17.40;;;10.13;;
10985;SDS011;5546;48.714;8.738;2023-02-15T05:24:40;19.13;;;10.70;;
10985;SDS011;5546;48.714;8.738;2023-02-15T05:27:24;17.80;;;10.83;;
10985;SDS011;5546;48.714;8.738;2023-02-15T05:30:09;20.93;;;13.33;;
10985;SDS011;5546;48.714;8.738;2023-02-15T05:32:36;17.70;;;10.90;;
10985;SDS011;5546;48.714;8.738;2023-02-15T05:35:03;17.77;;;10.20;;
10985;SDS011;5546;48.714;8.738;2023-02-15T05:37:29;19.43;;;13.03;;
10985;SDS011;5546;48.714;8.738;2023-02-15T05:39:54;17.00;;;11.20;;
10985;SDS011;5546;48.714;8.738;2023-02-15T05:42:20;14.63;;;8.67;;
10985;SDS011;5546;48.714;8.738;2023-02-15T05:44:45;16.17;;;10.90;;
10985;SDS011;5546;48.714;8.738;2023-02-15T05:47:10;16.53;;;11.10;;
10985;SDS011;5546;48.714;8.738;2023-02-15T05:49:36;85.53;;;59.27;;
10985;SDS011;5546;48.714;8.738;2023-02-15T05:52:02;53.33;;;33.33;;
10985;SDS011;5546;48.714;8.738;2023-02-15T05:54:28;45.40;;;29.63;;
10985;SDS011;5546;48.714;8.738;2023-02-15T05:56:53;26.37;;;18.07;;
10985;SDS011;5546;48.714;8.738;2023-02-15T05:59:19;15.40;;;10.40;;
10985;SDS011;5546;48.714;8.738;2023-02-15T06:01:44;28.10;;;15.87;;
10985;SDS011;5546;48.714;8.738;2023-02-15T06:04:10;12.03;;;8.13;;
10985;SDS011;5546;48.714;8.738;2023-02-15T06:06:35;15.10;;;8.50;;
10985;SDS011;5546;48.714;8.738;2023-02-15T06:09:01;10.23;;;7.03;;
10985;SDS011;5546;48.714;8.738;2023-02-15T06:11:26;10.40;;;6.80;;
10985;SDS011;5546;48.714;8.738;2023-02-15T06:13:52;9.40;;;6.20;;
10985;SDS011;5546;48.714;8.738;2023-02-15T06:16:17;19.67;;;12.13;;
10985;SDS011;5546;48.714;8.738;2023-02-15T06:18:43;17.00;;;11.67;;
10985;SDS011;5546;48.714;8.738;2023-02-15T06:21:08;15.20;;;10.70;;
10985;SDS011;5546;48.714;8.738;2023-02-15T06:23:34;22.60;;;13.10;;
10985;SDS011;5546;48.714;8.738;2023-02-15T06:25:59;16.40;;;10.37;;
10985;SDS011;5546;48.714;8.738;2023-02-15T06:28:25;12.87;;;8.17;;
10985;SDS011;5546;48.714;8.738;2023-02-15T06:30:51;10.97;;;7.00;;
10985;SDS011;5546;48.714;8.738;2023-02-15T06:33:17;10.73;;;6.77;;
10985;SDS011;5546;48.714;8.738;2023-02-15T06:35:42;11.50;;;7.13;;
10985;SDS011;5546;48.714;8.738;2023-02-15T06:38:09;9.97;;;6.77;;
10985;SDS011;5546;48.714;8.738;2023-02-15T06:40:34;11.57;;;8.30;;
10985;SDS011;5546;48.714;8.738;2023-02-15T06:43:00;14.27;;;8.57;;
10985;SDS011;5546;48.714;8.738;2023-02-15T06:45:25;11.37;;;7.07;;
10985;SDS011;5546;48.714;8.738;2023-02-15T06:47:51;12.67;;;8.07;;
10985;SDS011;5546;48.714;8.738;2023-02-15T06:50:16;11.47;;;7.77;;
10985;SDS011;5546;48.714;8.738;2023-02-15T06:52:42;12.97;;;7.63;;
10985;SDS011;5546;48.714;8.738;2023-02-15T06:55:08;15.23;;;9.03;;
10985;SDS011;5546;48.714;8.738;2023-02-15T06:57:33;15.00;;;9.53;;
10985;SDS011;5546;48.714;8.738;2023-02-15T06:59:59;15.97;;;10.00;;
10985;SDS011;5546;48.714;8.738;2023-02-15T07:02:25;12.03;;;8.40;;
10985;SDS011;5546;48.714;8.738;2023-02-15T07:04:50;12.67;;;7.50;;
10985;SDS011;5546;48.714;8.738;2023-02-15T07:07:16;10.77;;;7.13;;
10985;SDS011;5546;48.714;8.738;2023-02-15T07:09:41;13.40;;;8.47;;
10985;SDS011;5546;48.714;8.738;2023-02-15T07:12:07;17.00;;;9.07;;
10985;SDS011;5546;48.714;8.738;2023-02-15T07:14:52;16.83;;;10.23;;
10985;SDS011;5546;48.714;8.738;2023-02-15T07:17:18;18.97;;;12.60;;
10985;SDS011;5546;48.714;8.738;2023-02-15T07:19:43;21.10;;;13.60;;
10985;SDS011;5546;48.714;8.738;2023-02-15T07:22:09;16.73;;;11.40;;
10985;SDS011;5546;48.714;8.738;2023-02-15T07:24:34;17.43;;;11.73;;
10985;SDS011;5546;48.714;8.738;2023-02-15T07:27:00;19.93;;;12.50;;
10985;SDS011;5546;48.714;8.738;2023-02-15T07:29:25;15.43;;;10.80;;
10985;SDS011;5546;48.714;8.738;2023-02-15T07:31:51;19.20;;;12.53;;
10985;SDS011;5546;48.714;8.738;2023-02-15T07:34:17;19.13;;;12.17;;
10985;SDS011;5546;48.714;8.738;2023-02-15T07:36:42;18.73;;;11.77;;
10985;SDS011;5546;48.714;8.738;2023-02-15T07:39:11;22.53;;;13.87;;
10985;SDS011;5546;48.714;8.738;2023-02-15T07:41:36;19.47;;;12.13;;
10985;SDS011;5546;48.714;8.738;2023-02-15T07:44:02;17.13;;;12.17;;
10985;SDS011;5546;48.714;8.738;2023-02-15T07:46:27;19.03;;;12.40;;
10985;SDS011;5546;48.714;8.738;2023-02-15T07:48:53;19.57;;;12.03;;
10985;SDS011;5546;48.714;8.738;2023-02-15T07:51:19;18.57;;;11.67;;
10985;SDS011;5546;48.714;8.738;2023-02-15T07:53:44;18.50;;;12.60;;
10985;SDS011;5546;48.714;8.738;2023-02-15T07:56:12;17.23;;;11.43;;
10985;SDS011;5546;48.714;8.738;2023-02-15T07:58:38;18.67;;;10.83;;
10985;SDS011;5546;48.714;8.738;2023-02-15T08:01:16;11.67;;;9.07;;
10985;SDS011;5546;48.714;8.738;2023-02-15T08:03:43;11.70;;;7.97;;
10985;SDS011;5546;48.714;8.738;2023-02-15T08:06:08;11.50;;;8.80;;
10985;SDS011;5546;48.714;8.738;2023-02-15T08:08:36;10.77;;;8.50;;
10985;SDS011;5546;48.714;8.738;2023-02-15T08:13:56;12.17;;;8.77;;
10985;SDS011;5546;48.714;8.738;2023-02-15T08:16:33;11.27;;;7.93;;
10985;SDS011;5546;48.714;8.738;2023-02-15T08:19:11;10.17;;;7.83;;
10985;SDS011;5546;48.714;8.738;2023-02-15T08:21:40;12.30;;;9.10;;
10985;SDS011;5546;48.714;8.738;2023-02-15T08:24:08;11.10;;;8.47;;
10985;SDS011;5546;48.714;8.738;2023-02-15T08:26:35;10.50;;;8.60;;
10985;SDS011;5546;48.714;8.738;2023-02-15T08:29:01;14.47;;;9.47;;
10985;SDS011;5546;48.714;8.738;2023-02-15T08:31:27;12.67;;;9.17;;
10985;SDS011;5546;48.714;8.738;2023-02-15T08:33:54;11.20;;;8.60;;
10985;SDS011;5546;48.714;8.738;2023-02-15T08:36:21;15.60;;;9.53;;
10985;SDS011;5546;48.714;8.738;2023-02-15T08:38:48;11.00;;;7.97;;
10985;SDS011;5546;48.714;8.738;2023-02-15T08:41:22;10.50;;;8.20;;
10985;SDS011;5546;48.714;8.738;2023-02-15T08:43:55;9.98;;;7.88;;
10985;SDS011;5546;48.714;8.738;2023-02-15T08:46:23;9.18;;;8.05;;
10985;SDS011;5546;48.714;8.738;2023-02-15T08:48:50;11.45;;;9.40;;
10985;SDS011;5546;48.714;8.738;2023-02-15T08:51:17;10.80;;;8.55;;
10985;SDS011;5546;48.714;8.738;2023-02-15T08:53:48;9.93;;;7.28;;
10985;SDS011;5546;48.714;8.738;2023-02-15T08:56:15;8.55;;;7.05;;
10985;SDS011;5546;48.714;8.738;2023-02-15T08:58:42;8.50;;;7.22;;
10985;SDS011;5546;48.714;8.738;2023-02-15T09:01:08;7.05;;;6.35;;
10985;SDS011;5546;48.714;8.738;2023-02-15T09:03:39;8.07;;;7.20;;
10985;SDS011;5546;48.714;8.738;2023-02-15T09:06:05;7.77;;;6.77;;
10985;SDS011;5546;48.714;8.738;2023-02-15T09:08:31;8.43;;;7.17;;
10985;SDS011;5546;48.714;8.738;2023-02-15T09:11:13;8.67;;;7.03;;
10985;SDS011;5546;48.714;8.738;2023-02-15T09:13:51;10.73;;;7.30;;
10985;SDS011;5546;48.714;8.738;2023-02-15T09:16:23;8.70;;;6.40;;
10985;SDS011;5546;48.714;8.738;2023-02-15T09:18:50;10.17;;;7.07;;
10985;SDS011;5546;48.714;8.738;2023-02-15T09:21:17;9.03;;;7.20;;
10985;SDS011;5546;48.714;8.738;2023-02-15T09:23:45;9.77;;;7.30;;
10985;SDS011;5546;48.714;8.738;2023-02-15T09:26:13;10.37;;;7.93;;
10985;SDS011;5546;48.714;8.738;2023-02-15T09:28:40;9.07;;;7.30;;
10985;SDS011;5546;48.714;8.738;2023-02-15T09:31:07;10.60;;;7.37;;
10985;SDS011;5546;48.714;8.738;2023-02-15T09:33:36;9.77;;;7.23;;
10985;SDS011;5546;48.714;8.738;2023-02-15T09:36:03;8.77;;;7.17;;
10985;SDS011;5546;48.714;8.738;2023-02-15T09:38:29;11.13;;;6.90;;
10985;SDS011;5546;48.714;8.738;2023-02-15T09:46:42;10.33;;;7.20;;
10985;SDS011;5546;48.714;8.738;2023-02-15T09:52:03;7.97;;;6.17;;
10985;SDS011;5546;48.714;8.738;2023-02-15T09:54:59;10.37;;;6.50;;
10985;SDS011;5546;48.714;8.738;2023-02-15T09:57:45;7.22;;;6.13;;
10985;SDS011;5546;48.714;8.738;2023-02-15T10:09:09;6.72;;;6.13;;
10985;SDS011;5546;48.714;8.738;2023-02-15T10:14:36;6.80;;;6.10;;
10985;SDS011;5546;48.714;8.738;2023-02-15T10:27:48;6.93;;;6.03;;
10985;SDS011;5546;48.714;8.738;2023-02-15T10:30:27;8.27;;;6.53;;
10985;SDS011;5546;48.714;8.738;2023-02-15T10:33:09;7.20;;;6.03;;
10985;SDS011;5546;48.714;8.738;2023-02-15T10:38:46;7.30;;;6.00;;
10985;SDS011;5546;48.714;8.738;2023-02-15T10:59:53;6.00;;;5.38;;
10985;SDS011;5546;48.714;8.738;2023-02-15T11:05:37;7.93;;;5.60;;
10985;SDS011;5546;48.714;8.738;2023-02-15T11:08:07;6.05;;;5.38;;
10985;SDS011;5546;48.714;8.738;2023-02-15T11:13:12;5.82;;;5.10;;
10985;SDS011;5546;48.714;8.738;2023-02-15T11:15:44;6.30;;;4.47;;
10985;SDS011;5546;48.714;8.738;2023-02-15T11:18:26;5.15;;;4.65;;
10985;SDS011;5546;48.714;8.738;2023-02-15T11:21:19;5.60;;;4.95;;
10985;SDS011;5546;48.714;8.738;2023-02-15T11:23:46;6.32;;;5.03;;
10985;SDS011;5546;48.714;8.738;2023-02-15T11:28:48;7.93;;;6.10;;
10985;SDS011;5546;48.714;8.738;2023-02-15T11:31:22;6.60;;;5.22;;
10985;SDS011;5546;48.714;8.738;2023-02-15T11:34:00;6.65;;;4.85;;
10985;SDS011;5546;48.714;8.738;2023-02-15T11:36:34;4.72;;;4.30;;
10985;SDS011;5546;48.714;8.738;2023-02-15T11:39:25;5.13;;;4.63;;
10985;SDS011;5546;48.714;8.738;2023-02-15T11:41:54;7.43;;;5.53;;
10985;SDS011;5546;48.714;8.738;2023-02-15T11:46:51;6.15;;;5.55;;
10985;SDS011;5546;48.714;8.738;2023-02-15T11:51:51;10.30;;;6.00;;
10985;SDS011;5546;48.714;8.738;2023-02-15T11:54:19;8.32;;;6.78;;
10985;SDS011;5546;48.714;8.738;2023-02-15T11:56:49;7.05;;;5.40;;
10985;SDS011;5546;48.714;8.738;2023-02-15T11:59:24;4.90;;;4.40;;
10985;SDS011;5546;48.714;8.738;2023-02-15T12:01:56;6.10;;;4.40;;
10985;SDS011;5546;48.714;8.738;2023-02-15T12:04:23;5.03;;;3.53;;
10985;SDS011;5546;48.714;8.738;2023-02-15T12:09:59;5.93;;;4.57;;
10985;SDS011;5546;48.714;8.738;2023-02-15T12:12:29;5.43;;;4.43;;
10985;SDS011;5546;48.714;8.738;2023-02-15T12:14:57;7.45;;;5.85;;
10985;SDS011;5546;48.714;8.738;2023-02-15T12:17:26;7.95;;;6.65;;
10985;SDS011;5546;48.714;8.738;2023-02-15T12:19:59;8.07;;;6.60;;
10985;SDS011;5546;48.714;8.738;2023-02-15T12:22:30;10.35;;;6.40;;
10985;SDS011;5546;48.714;8.738;2023-02-15T12:24:59;5.63;;;4.88;;
10985;SDS011;5546;48.714;8.738;2023-02-15T12:27:28;5.57;;;3.83;;
10985;SDS011;5546;48.714;8.738;2023-02-15T12:29:59;3.90;;;3.55;;
10985;SDS011;5546;48.714;8.738;2023-02-15T12:32:34;5.15;;;3.70;;
10985;SDS011;5546;48.714;8.738;2023-02-15T12:38:20;3.78;;;3.47;;
10985;SDS011;5546;48.714;8.738;2023-02-15T12:40:56;4.45;;;3.67;;
10985;SDS011;5546;48.714;8.738;2023-02-15T12:46:02;5.53;;;3.65;;
10985;SDS011;5546;48.714;8.738;2023-02-15T12:48:39;6.03;;;3.90;;
10985;SDS011;5546;48.714;8.738;2023-02-15T12:51:08;4.43;;;3.45;;
10985;SDS011;5546;48.714;8.738;2023-02-15T12:53:37;4.32;;;3.67;;
10985;SDS011;5546;48.714;8.738;2023-02-15T12:56:05;5.13;;;3.85;;
10985;SDS011;5546;48.714;8.738;2023-02-15T12:58:35;7.45;;;5.55;;
10985;SDS011;5546;48.714;8.738;2023-02-15T13:03:54;5.70;;;4.60;;
10985;SDS011;5546;48.714;8.738;2023-02-15T13:06:23;5.25;;;4.43;;
10985;SDS011;5546;48.714;8.738;2023-02-15T13:08:53;4.95;;;4.00;;
10985;SDS011;5546;48.714;8.738;2023-02-15T13:11:25;5.50;;;4.00;;
10985;SDS011;5546;48.714;8.738;2023-02-15T13:14:00;4.15;;;3.75;;
10985;SDS011;5546;48.714;8.738;2023-02-15T13:16:30;4.95;;;3.85;;
10985;SDS011;5546;48.714;8.738;2023-02-15T13:19:09;6.63;;;4.40;;
10985;SDS011;5546;48.714;8.738;2023-02-15T13:21:48;5.93;;;4.28;;
10985;SDS011;5546;48.714;8.738;2023-02-15T13:24:21;5.18;;;3.85;;
10985;SDS011;5546;48.714;8.738;2023-02-15T13:27:02;4.43;;;3.70;;
10985;SDS011;5546;48.714;8.738;2023-02-15T13:29:29;4.77;;;3.60;;
10985;SDS011;5546;48.714;8.738;2023-02-15T13:32:00;4.77;;;3.40;;
10985;SDS011;5546;48.714;8.738;2023-02-15T13:34:37;4.20;;;3.50;;
10985;SDS011;5546;48.714;8.738;2023-02-15T13:37:06;4.33;;;3.53;;
10985;SDS011;5546;48.714;8.738;2023-02-15T13:43:00;4.30;;;3.10;;
10985;SDS011;5546;48.714;8.738;2023-02-15T13:45:49;4.73;;;3.30;;
10985;SDS011;5546;48.714;8.738;2023-02-15T13:59:20;4.10;;;2.77;;
10985;SDS011;5546;48.714;8.738;2023-02-15T14:01:58;5.73;;;2.60;;
10985;SDS011;5546;48.714;8.738;2023-02-15T14:04:53;4.20;;;2.60;;
10985;SDS011;5546;48.714;8.738;2023-02-15T14:13:10;3.60;;;2.60;;
10985;SDS011;5546;48.714;8.738;2023-02-15T14:15:35;6.97;;;2.70;;
10985;SDS011;5546;48.714;8.738;2023-02-15T14:24:05;6.17;;;3.00;;
10985;SDS011;5546;48.714;8.738;2023-02-15T14:32:32;5.83;;;2.80;;
10985;SDS011;5546;48.714;8.738;2023-02-15T14:35:12;3.63;;;2.47;;
10985;SDS011;5546;48.714;8.738;2023-02-15T14:37:42;4.03;;;2.63;;
10985;SDS011;5546;48.714;8.738;2023-02-15T14:40:27;3.93;;;2.80;;
10985;SDS011;5546;48.714;8.738;2023-02-15T14:48:42;3.90;;;2.43;;
10985;SDS011;5546;48.714;8.738;2023-02-15T14:51:37;3.40;;;2.70;;
10985;SDS011;5546;48.714;8.738;2023-02-15T14:54:11;6.70;;;2.67;;
10985;SDS011;5546;48.714;8.738;2023-02-15T14:59:26;5.23;;;3.20;;
10985;SDS011;5546;48.714;8.738;2023-02-15T15:01:54;4.40;;;3.30;;
10985;SDS011;5546;48.714;8.738;2023-02-15T15:04:30;4.27;;;2.70;;
10985;SDS011;5546;48.714;8.738;2023-02-15T15:07:17;4.27;;;3.20;;
10985;SDS011;5546;48.714;8.738;2023-02-15T15:12:45;7.37;;;3.80;;
10985;SDS011;5546;48.714;8.738;2023-02-15T15:15:13;6.63;;;2.97;;
10985;SDS011;5546;48.714;8.738;2023-02-15T15:18:09;7.90;;;3.20;;
10985;SDS011;5546;48.714;8.738;2023-02-15T15:20:58;5.70;;;3.10;;
10985;SDS011;5546;48.714;8.738;2023-02-15T15:23:38;6.47;;;2.97;;
10985;SDS011;5546;48.714;8.738;2023-02-15T15:26:22;5.07;;;3.53;;
10985;SDS011;5546;48.714;8.738;2023-02-15T15:37:00;5.60;;;3.67;;
10985;SDS011;5546;48.714;8.738;2023-02-15T15:40:00;5.80;;;4.30;;
10985;SDS011;5546;48.714;8.738;2023-02-15T15:49:34;6.27;;;4.30;;
10985;SDS011;5546;48.714;8.738;2023-02-15T15:52:10;6.37;;;4.97;;
10985;SDS011;5546;48.714;8.738;2023-02-15T15:54:39;6.40;;;5.13;;
10985;SDS011;5546;48.714;8.738;2023-02-15T15:57:06;8.20;;;5.30;;
10985;SDS011;5546;48.714;8.738;2023-02-15T15:59:53;10.73;;;5.80;;
10985;SDS011;5546;48.714;8.738;2023-02-15T16:02:19;10.57;;;6.77;;
10985;SDS011;5546;48.714;8.738;2023-02-15T16:04:45;19.73;;;10.37;;
10985;SDS011;5546;48.714;8.738;2023-02-15T16:12:35;12.10;;;7.17;;
10985;SDS011;5546;48.714;8.738;2023-02-15T16:15:13;11.00;;;7.43;;
10985;SDS011;5546;48.714;8.738;2023-02-15T16:17:41;12.63;;;7.17;;
10985;SDS011;5546;48.714;8.738;2023-02-15T16:22:47;12.40;;;7.17;;
10985;SDS011;5546;48.714;8.738;2023-02-15T16:27:48;10.00;;;7.33;;
10985;SDS011;5546;48.714;8.738;2023-02-15T16:30:21;10.93;;;6.70;;
10985;SDS011;5546;48.714;8.738;2023-02-15T16:32:52;11.20;;;7.67;;
10985;SDS011;5546;48.714;8.738;2023-02-15T16:35:21;12.67;;;7.63;;
10985;SDS011;5546;48.714;8.738;2023-02-15T16:37:48;12.87;;;7.13;;
10985;SDS011;5546;48.714;8.738;2023-02-15T16:42:49;14.30;;;7.87;;
10985;SDS011;5546;48.714;8.738;2023-02-15T16:45:18;9.10;;;7.07;;
10985;SDS011;5546;48.714;8.738;2023-02-15T16:47:53;11.63;;;6.60;;
10985;SDS011;5546;48.714;8.738;2023-02-15T16:50:30;13.73;;;7.27;;
10985;SDS011;5546;48.714;8.738;2023-02-15T16:53:04;13.40;;;7.80;;
10985;SDS011;5546;48.714;8.738;2023-02-15T16:55:41;11.77;;;7.47;;
10985;SDS011;5546;48.714;8.738;2023-02-15T16:58:11;11.37;;;6.80;;
10985;SDS011;5546;48.714;8.738;2023-02-15T17:00:40;11.40;;;7.07;;
10985;SDS011;5546;48.714;8.738;2023-02-15T17:05:47;10.70;;;7.43;;
10985;SDS011;5546;48.714;8.738;2023-02-15T17:08:16;12.00;;;8.27;;
10985;SDS011;5546;48.714;8.738;2023-02-15T17:13:39;9.40;;;6.97;;
10985;SDS011;5546;48.714;8.738;2023-02-15T17:16:28;12.00;;;7.47;;
10985;SDS011;5546;48.714;8.738;2023-02-15T17:19:01;12.50;;;8.03;;
10985;SDS011;5546;48.714;8.738;2023-02-15T17:21:40;12.07;;;8.43;;
10985;SDS011;5546;48.714;8.738;2023-02-15T17:24:18;12.37;;;8.23;;
10985;SDS011;5546;48.714;8.738;2023-02-15T17:26:57;14.60;;;8.53;;
10985;SDS011;5546;48.714;8.738;2023-02-15T17:29:31;13.60;;;8.43;;
10985;SDS011;5546;48.714;8.738;2023-02-15T17:32:15;13.90;;;8.23;;
10985;SDS011;5546;48.714;8.738;2023-02-15T17:38:00;12.10;;;7.97;;
10985;SDS011;5546;48.714;8.738;2023-02-15T17:42:45;10.50;;;8.07;;
10985;SDS011;5546;48.714;8.738;2023-02-15T17:45:11;11.40;;;7.60;;
10985;SDS011;5546;48.714;8.738;2023-02-15T17:47:36;12.83;;;7.90;;
10985;SDS011;5546;48.714;8.738;2023-02-15T17:50:03;11.83;;;7.73;;
10985;SDS011;5546;48.714;8.738;2023-02-15T17:52:29;10.47;;;7.43;;
10985;SDS011;5546;48.714;8.738;2023-02-15T17:54:55;10.60;;;7.33;;
10985;SDS011;5546;48.714;8.738;2023-02-15T17:57:40;11.83;;;7.47;;
10985;SDS011;5546;48.714;8.738;2023-02-15T18:00:06;10.43;;;7.77;;
10985;SDS011;5546;48.714;8.738;2023-02-15T18:02:51;14.03;;;7.63;;
10985;SDS011;5546;48.714;8.738;2023-02-15T18:05:36;11.07;;;7.10;;
10985;SDS011;5546;48.714;8.738;2023-02-15T18:08:22;10.23;;;7.13;;
10985;SDS011;5546;48.714;8.738;2023-02-15T18:11:09;10.73;;;7.53;;
10985;SDS011;5546;48.714;8.738;2023-02-15T18:13:54;13.50;;;8.23;;
10985;SDS011;5546;48.714;8.738;2023-02-15T18:16:25;9.73;;;7.20;;
10985;SDS011;5546;48.714;8.738;2023-02-15T18:18:53;11.53;;;7.70;;
10985;SDS011;5546;48.714;8.738;2023-02-15T18:21:20;10.00;;;7.10;;
10985;SDS011;5546;48.714;8.738;2023-02-15T18:23:45;9.37;;;6.97;;
10985;SDS011;5546;48.714;8.738;2023-02-15T18:26:12;9.37;;;7.50;;